Etusivu
METAR-TAF:

METAR-TAF

Lentoasemat :

Yanbu, Saudi-Arabia

Leveyspiiri: 24-09N, Pituuspiiri: 038-04E, korkeus merenpinnasta: 8 m

Tämänhetkinen sää

Tämä raportti tehtiin 1 tunti ja 18 minuuttia sitten, kello 10.00 UTC
Tuuli 10 kn luoteesta
Lämpötila 24°C
Kosteus 38%
Ilmanpaine 1017 hPa
Näkyvyys 10 km tai enemmän
ei pilviä alle 1500 m:ssä eikä cumulonimbus-pilviä

METAR: OEYN 261000Z 31010KT CAVOK 24/09 Q1017 NOSIG

Aika: 14:18 (11:18 UTC)

Sääennuste

Tämä raportti tehtiin 6 tuntia ja 18 minuuttia sitten, kello 05.00 UTC
Ennuste voimassa 26. päivästä klo 06 UTC - 26. päivään klo 15 UTC
Tuuli 16 kn lounaasta
Näkyvyys: 7000 m
Muutamia pilviä 4000 ft:n korkeudessa
Tulossa
26. päivästä klo 10 UTC - 26. päivään klo 12 UTC
Tuuli 182 kn lännestä

TAF: OEYN 260500Z 2606/2615 23016KT 7000 FEW040 BECMG 2610/2612 270182KT

Säähavainnot ja -ennusteet yli 4000 lentoasemalta (METAR- ja TAF-raportit).

Käytössä olevat sääasemat on merkitty karttaan keltaisilla ja punaisilla pisteillä.

Aseta hiiri pisteen päälle nähdäksesi sääaseman nimen.

Klikkaa sitten nähdäksesi säähavainnot ja -ennusteet.

Kartan vaihtaminen: klikkaa mustalla rastilla varustettuja vihreitä pisteitä, niin voit zoomata sisään; viivalla varustettua vihreää pistettä, niin voit zoomata ulos tai vihreitä nuolia, niin pääset viereisille kartoille.


METAR-TAF: